Time;durP1;ratioP1;P1;durP2;ratioP2;P2;SDS_P1;SDS_P2;PMS_P1;PMS_P2;Temp;Humidity;BMP_temperature;BMP_pressure;BME280_temperature;BME280_humidity;BME280_pressure;Samples;Min_cycle;Max_cycle;Signal;HPM_P1;HPM_P2
2023/08/07 00:02:04;;;;;;;4.43;1.20;;;12.40;99.90;;;;;;7587534;19;20137;-74
2023/08/07 00:04:37;;;;;;;4.93;1.20;;;12.40;99.90;;;;;;7594160;19;20872;-72
2023/08/07 00:07:09;;;;;;;2.83;1.25;;;12.40;99.90;;;;;;7592724;19;20026;-73
2023/08/07 00:09:42;;;;;;;3.05;1.30;;;12.30;99.90;;;;;;7580685;19;21085;-73
2023/08/07 00:12:14;;;;;;;3.22;1.35;;;12.30;99.90;;;;;;7587692;19;20033;-73
2023/08/07 00:14:52;;;;;;;4.25;1.35;;;12.30;99.90;;;;;;7588976;19;21091;-73
2023/08/07 00:17:24;;;;;;;1.48;1.05;;;12.30;99.90;;;;;;7590996;19;20022;-73
2023/08/07 00:19:57;;;;;;;1.95;0.95;;;12.30;99.90;;;;;;7590968;19;20030;-73
2023/08/07 00:22:29;;;;;;;6.60;1.17;;;12.30;99.90;;;;;;7584356;19;20014;-72
2023/08/07 00:25:02;;;;;;;2.58;0.95;;;12.30;99.90;;;;;;7584278;19;20724;-74
2023/08/07 00:27:34;;;;;;;2.78;1.02;;;12.20;99.90;;;;;;7579047;19;21478;-72
2023/08/07 00:30:07;;;;;;;2.40;1.10;;;12.20;99.90;;;;;;7582666;19;20023;-73
2023/08/07 00:32:39;;;;;;;2.50;1.30;;;12.20;99.90;;;;;;7588604;19;20011;-72
2023/08/07 00:35:11;;;;;;;1.55;1.13;;;12.10;99.90;;;;;;7586244;19;20364;-73
2023/08/07 00:37:44;;;;;;;2.20;1.10;;;12.10;99.90;;;;;;7591276;19;20085;-73
2023/08/07 00:40:17;;;;;;;1.97;1.20;;;12.00;99.90;;;;;;7589488;19;20028;-73
2023/08/07 00:42:49;;;;;;;2.47;1.50;;;12.00;99.90;;;;;;7578195;19;20477;-71
2023/08/07 00:45:22;;;;;;;2.17;1.15;;;12.00;99.90;;;;;;7592188;19;20022;-72
2023/08/07 00:47:54;;;;;;;2.40;1.27;;;11.90;99.90;;;;;;7588325;19;20018;-71
2023/08/07 00:50:26;;;;;;;2.42;1.25;;;11.80;99.90;;;;;;7580757;19;20055;-72
2023/08/07 00:53:16;;;;;;;1.48;1.00;;;11.80;99.90;;;;;;7585462;19;20640;-72
2023/08/07 00:55:48;;;;;;;2.97;1.63;;;11.70;99.90;;;;;;7577026;19;20598;-73
2023/08/07 00:58:21;;;;;;;2.88;1.70;;;11.60;99.90;;;;;;7585598;19;20034;-72
2023/08/07 01:00:53;;;;;;;2.85;1.40;;;11.40;99.90;;;;;;7578112;19;20041;-72
2023/08/07 01:03:25;;;;;;;3.00;1.38;;;11.40;99.90;;;;;;7585950;19;20014;-73
2023/08/07 01:05:58;;;;;;;3.10;1.27;;;11.30;99.90;;;;;;7591447;19;20021;-74
2023/08/07 01:08:30;;;;;;;3.28;1.15;;;11.20;99.90;;;;;;7584377;19;20025;-71
2023/08/07 01:11:18;;;;;;;3.35;1.60;;;11.10;99.90;;;;;;7580405;19;20019;-72
2023/08/07 01:14:00;;;;;;;4.82;1.60;;;11.00;99.90;;;;;;7581412;19;20105;-73
2023/08/07 01:16:38;;;;;;;3.47;1.60;;;10.90;99.90;;;;;;7586222;19;20022;-72
2023/08/07 01:19:24;;;;;;;3.75;1.58;;;10.80;99.90;;;;;;7588920;19;20566;-73
2023/08/07 01:22:11;;;;;;;3.28;1.70;;;10.70;99.90;;;;;;7584278;19;20018;-74
2023/08/07 01:24:45;;;;;;;4.13;1.67;;;10.70;99.90;;;;;;7578291;19;20018;-71
2023/08/07 01:27:17;;;;;;;2.53;1.20;;;10.60;99.90;;;;;;7588961;19;20503;-73
2023/08/07 01:30:28;;;;;;;6.78;2.33;;;10.50;99.90;;;;;;7588748;19;20015;-73
2023/08/07 01:33:29;;;;;;;2.40;1.40;;;10.50;99.90;;;;;;7589595;19;20777;-71
2023/08/07 01:36:06;;;;;;;2.08;1.42;;;10.50;99.90;;;;;;7590773;19;20722;-72
2023/08/07 01:38:40;;;;;;;2.03;1.60;;;10.40;99.90;;;;;;7581478;19;20018;-73
2023/08/07 01:41:12;;;;;;;2.47;1.52;;;10.40;99.90;;;;;;7586098;19;20019;-71
2023/08/07 01:43:45;;;;;;;5.87;1.30;;;10.40;99.90;;;;;;7575587;19;20011;-71
2023/08/07 01:46:18;;;;;;;3.60;1.80;;;10.30;99.90;;;;;;7575634;19;20026;-72
2023/08/07 01:48:50;;;;;;;3.83;1.70;;;10.30;99.90;;;;;;7573135;19;20029;-72
2023/08/07 01:51:23;;;;;;;4.88;2.00;;;10.30;99.90;;;;;;7583665;19;20014;-72
2023/08/07 01:53:55;;;;;;;5.50;2.30;;;10.20;99.90;;;;;;7585502;19;20479;-73
2023/08/07 01:56:27;;;;;;;5.25;2.42;;;10.20;99.90;;;;;;7582570;19;20034;-72
2023/08/07 01:59:00;;;;;;;7.20;2.10;;;10.10;99.90;;;;;;7570577;19;20052;-73
2023/08/07 02:01:32;;;;;;;4.95;1.92;;;10.10;99.90;;;;;;7587911;19;20059;-72
2023/08/07 02:04:04;;;;;;;8.00;2.03;;;10.10;99.90;;;;;;7585956;19;20816;-73
2023/08/07 02:06:36;;;;;;;5.18;2.10;;;10.00;99.90;;;;;;7588146;19;20051;-73
2023/08/07 02:09:09;;;;;;;4.45;1.92;;;10.00;99.90;;;;;;7586664;19;20033;-72
2023/08/07 02:11:42;;;;;;;4.10;1.92;;;9.90;99.90;;;;;;7581232;19;20017;-72
2023/08/07 02:14:14;;;;;;;3.10;2.00;;;10.00;99.90;;;;;;7581783;19;20015;-72
2023/08/07 02:16:47;;;;;;;3.45;2.05;;;9.90;99.90;;;;;;7589686;19;20022;-72
2023/08/07 02:19:19;;;;;;;4.50;2.40;;;9.90;99.90;;;;;;7595893;19;20015;-72
2023/08/07 02:21:51;;;;;;;6.10;2.35;;;9.90;99.90;;;;;;7592931;19;20032;-73
2023/08/07 02:24:23;;;;;;;3.35;1.90;;;9.90;99.90;;;;;;7580264;19;20816;-73
2023/08/07 02:26:55;;;;;;;3.33;1.95;;;10.00;99.90;;;;;;7576061;19;20918;-72
2023/08/07 02:29:29;;;;;;;8.63;2.63;;;9.80;99.90;;;;;;7585725;19;20022;-71
2023/08/07 02:32:02;;;;;;;;;;;9.70;99.90;;;;;;7581830;19;20026;-71
2023/08/07 02:34:35;;;;;;;4.07;2.00;;;9.70;99.90;;;;;;7587783;19;19922;-73
2023/08/07 02:37:08;;;;;;;4.32;1.90;;;9.70;99.90;;;;;;7584919;19;20018;-72
2023/08/07 02:39:40;;;;;;;5.07;2.47;;;9.70;99.90;;;;;;7577371;19;20014;-72
2023/08/07 02:42:14;;;;;;;5.18;2.85;;;9.70;99.90;;;;;;7578990;19;20015;-74
2023/08/07 02:44:46;;;;;;;7.93;2.67;;;9.70;99.90;;;;;;7582349;19;20078;-73
2023/08/07 02:47:18;;;;;;;4.28;2.30;;;9.80;99.90;;;;;;7589824;19;20022;-74
2023/08/07 02:49:50;;;;;;;3.60;2.25;;;9.80;99.90;;;;;;7586158;19;20648;-71
2023/08/07 02:52:23;;;;;;;4.20;2.45;;;9.80;99.90;;;;;;7587049;19;20030;-70
2023/08/07 02:54:55;;;;;;;6.45;2.78;;;9.80;99.90;;;;;;7582768;19;20010;-72
2023/08/07 02:57:27;;;;;;;5.53;2.30;;;9.80;99.90;;;;;;7583255;19;20680;-71
2023/08/07 02:59:59;;;;;;;6.82;2.38;;;9.80;99.90;;;;;;7580688;19;20022;-72
2023/08/07 03:02:31;;;;;;;4.53;2.60;;;9.90;99.90;;;;;;7576688;19;20045;-72
2023/08/07 03:05:04;;;;;;;4.97;2.10;;;9.90;99.90;;;;;;7584637;19;20018;-72
2023/08/07 03:07:36;;;;;;;4.18;2.30;;;9.90;99.90;;;;;;7583373;19;20093;-75
2023/08/07 03:10:08;;;;;;;5.05;2.22;;;9.90;99.90;;;;;;7584647;19;20021;-71
2023/08/07 03:12:41;;;;;;;5.03;2.80;;;9.90;99.90;;;;;;7584225;19;20124;-71
2023/08/07 03:15:13;;;;;;;5.47;2.87;;;9.90;99.90;;;;;;7585432;19;20014;-72
2023/08/07 03:17:46;;;;;;;4.90;2.90;;;9.90;99.90;;;;;;7589964;19;20046;-72
2023/08/07 03:20:18;;;;;;;8.40;2.03;;;9.90;99.90;;;;;;7590182;19;20043;-72
2023/08/07 03:22:50;;;;;;;5.57;2.50;;;9.90;99.90;;;;;;7581722;19;20026;-71
2023/08/07 03:25:23;;;;;;;3.78;2.03;;;10.00;99.90;;;;;;7573573;19;20018;-72
2023/08/07 03:27:55;;;;;;;4.97;2.60;;;10.00;99.90;;;;;;7577474;19;20794;-71
2023/08/07 03:30:27;;;;;;;5.28;2.42;;;10.00;99.90;;;;;;7576498;19;20018;-72
2023/08/07 03:33:00;;;;;;;4.22;2.28;;;10.00;99.90;;;;;;7578487;19;20133;-73
2023/08/07 03:35:33;;;;;;;5.15;2.85;;;10.10;99.90;;;;;;7586753;19;20547;-71
2023/08/07 03:38:06;;;;;;;5.10;2.23;;;10.10;99.90;;;;;;7580821;19;20140;-71
2023/08/07 03:40:38;;;;;;;5.00;2.40;;;10.10;99.90;;;;;;7580050;19;20049;-72
2023/08/07 03:43:12;;;;;;;5.97;2.72;;;10.10;99.90;;;;;;7570990;19;20011;-72
2023/08/07 03:45:45;;;;;;;4.40;2.40;;;10.20;99.90;;;;;;7586306;19;20026;-71
2023/08/07 03:48:18;;;;;;;6.75;2.78;;;10.20;99.90;;;;;;7589713;19;20821;-71
2023/08/07 03:50:51;;;;;;;5.55;1.83;;;10.20;99.90;;;;;;7587197;19;20090;-71
2023/08/07 03:53:23;;;;;;;6.65;2.20;;;10.20;99.90;;;;;;7585815;19;20026;-71
2023/08/07 03:55:56;;;;;;;3.55;2.20;;;10.30;99.90;;;;;;7578951;19;20010;-72
2023/08/07 03:58:28;;;;;;;4.32;2.22;;;10.30;99.90;;;;;;7587462;19;20033;-71
2023/08/07 04:01:00;;;;;;;4.25;2.15;;;10.30;99.90;;;;;;7578740;19;20029;-70
2023/08/07 04:03:33;;;;;;;5.25;2.35;;;10.30;99.90;;;;;;7577634;19;20011;-71
2023/08/07 04:06:05;;;;;;;4.20;2.10;;;10.30;99.90;;;;;;7581621;19;20296;-71
2023/08/07 04:08:38;;;;;;;6.72;2.22;;;10.30;99.90;;;;;;7582378;19;20046;-71
2023/08/07 04:11:10;;;;;;;5.65;2.30;;;10.30;99.90;;;;;;7574806;19;20007;-71
2023/08/07 04:13:42;;;;;;;3.72;1.98;;;10.30;99.90;;;;;;7581819;19;20047;-71
2023/08/07 04:16:15;;;;;;;6.40;2.13;;;10.40;99.90;;;;;;7575126;19;20064;-72
2023/08/07 04:18:48;;;;;;;3.37;1.93;;;10.40;99.90;;;;;;7588919;19;20063;-73
2023/08/07 04:21:20;;;;;;;3.97;1.80;;;10.40;99.90;;;;;;7594292;19;20025;-71
2023/08/07 04:23:53;;;;;;;4.22;1.90;;;10.40;99.90;;;;;;7583020;19;20613;-72
2023/08/07 04:26:26;;;;;;;6.75;2.22;;;10.50;99.90;;;;;;7584722;19;20588;-73
2023/08/07 04:28:58;;;;;;;7.07;2.40;;;10.50;99.90;;;;;;7595094;19;20047;-72
2023/08/07 04:31:31;;;;;;;4.22;2.42;;;10.50;99.90;;;;;;7593597;19;20045;-72
2023/08/07 04:34:03;;;;;;;3.40;1.90;;;10.50;99.90;;;;;;7588437;19;20022;-72
2023/08/07 04:36:35;;;;;;;4.47;2.10;;;10.50;99.90;;;;;;7590619;19;20021;-73
2023/08/07 04:39:08;;;;;;;8.93;1.90;;;10.50;99.90;;;;;;7585759;19;20439;-72
2023/08/07 04:41:40;;;;;;;4.73;2.37;;;10.60;99.90;;;;;;7592193;19;20022;-73
2023/08/07 04:44:12;;;;;;;3.58;2.10;;;10.60;99.90;;;;;;7567533;19;20345;-73
2023/08/07 04:46:45;;;;;;;4.88;1.83;;;10.70;99.90;;;;;;7574943;19;20034;-75
2023/08/07 04:49:17;;;;;;;4.15;2.00;;;10.70;99.90;;;;;;7593376;19;20019;-74
2023/08/07 04:51:50;;;;;;;5.50;2.60;;;10.60;99.90;;;;;;7582903;19;20117;-74
2023/08/07 04:54:22;;;;;;;8.73;2.10;;;10.60;99.90;;;;;;7587267;19;20011;-72
2023/08/07 04:56:54;;;;;;;5.85;1.92;;;10.70;99.90;;;;;;7599384;19;20022;-72
2023/08/07 04:59:30;;;;;;;3.45;1.95;;;10.70;99.90;;;;;;7610000;19;20371;-73
2023/08/07 05:02:02;;;;;;;4.53;2.13;;;10.70;99.90;;;;;;7604644;19;20023;-72
2023/08/07 05:04:34;;;;;;;5.95;2.35;;;10.70;99.90;;;;;;7606917;19;20018;-72
2023/08/07 05:07:06;;;;;;;6.55;2.15;;;10.70;99.90;;;;;;7603260;19;20709;-73
2023/08/07 05:09:39;;;;;;;5.55;2.13;;;10.70;99.90;;;;;;7603260;19;20022;-73
2023/08/07 05:12:11;;;;;;;4.47;2.20;;;10.80;99.90;;;;;;7605720;19;20037;-73
2023/08/07 05:14:44;;;;;;;2.47;1.83;;;10.80;99.90;;;;;;7606403;19;20010;-72
2023/08/07 05:17:16;;;;;;;4.30;1.83;;;10.80;99.90;;;;;;7597916;19;20021;-73
2023/08/07 05:19:48;;;;;;;4.82;2.15;;;10.90;99.90;;;;;;7607629;19;20026;-73
2023/08/07 05:22:20;;;;;;;4.63;2.22;;;10.90;99.90;;;;;;7601744;19;20022;-72
2023/08/07 05:24:52;;;;;;;3.13;1.75;;;10.90;99.90;;;;;;7599505;19;20018;-73
2023/08/07 05:27:25;;;;;;;6.10;2.47;;;10.90;99.90;;;;;;7596794;19;20014;-75
2023/08/07 05:29:57;;;;;;;4.55;2.17;;;10.90;99.90;;;;;;7602283;19;20033;-74
2023/08/07 05:32:32;;;;;;;3.72;1.95;;;11.00;99.90;;;;;;7588794;19;20764;-74
2023/08/07 05:35:05;;;;;;;3.88;2.10;;;11.00;99.90;;;;;;7600482;19;20017;-73
2023/08/07 05:37:38;;;;;;;6.05;2.15;;;11.00;99.90;;;;;;7591135;19;20026;-73
2023/08/07 05:40:11;;;;;;;4.57;2.15;;;11.00;99.90;;;;;;7583549;19;20014;-74
2023/08/07 05:42:44;;;;;;;4.93;1.95;;;11.00;99.90;;;;;;7594748;19;20125;-75
2023/08/07 05:45:16;;;;;;;3.78;1.98;;;11.10;99.90;;;;;;7591843;19;20018;-72
2023/08/07 05:47:49;;;;;;;2.58;1.63;;;11.10;99.90;;;;;;7592431;19;20018;-72
2023/08/07 05:50:21;;;;;;;4.13;2.20;;;11.10;99.90;;;;;;7591469;19;20026;-72
2023/08/07 05:52:54;;;;;;;3.85;2.03;;;11.10;99.90;;;;;;7595528;19;20026;-71
2023/08/07 05:55:26;;;;;;;5.47;1.88;;;11.20;99.90;;;;;;7595082;19;20029;-73
2023/08/07 05:57:58;;;;;;;4.88;2.17;;;11.20;99.90;;;;;;7596350;19;20015;-76
2023/08/07 06:00:32;;;;;;;7.63;2.33;;;11.20;99.90;;;;;;7591505;19;20014;-74
2023/08/07 06:03:05;;;;;;;4.40;1.70;;;11.20;99.90;;;;;;7595510;19;20026;-75
2023/08/07 06:05:37;;;;;;;3.17;1.90;;;11.30;99.90;;;;;;7589520;19;20105;-74
2023/08/07 06:08:09;;;;;;;4.70;2.00;;;11.30;99.90;;;;;;7588930;19;20037;-74
2023/08/07 06:10:42;;;;;;;3.75;2.40;;;11.30;99.90;;;;;;7592474;19;20094;-74
2023/08/07 06:13:14;;;;;;;6.15;1.80;;;11.30;99.90;;;;;;7585944;19;20455;-74
2023/08/07 06:16:06;;;;;;;3.38;1.40;;;11.30;99.90;;;;;;7595802;19;20018;-73
2023/08/07 06:18:38;;;;;;;3.90;2.13;;;11.30;99.90;;;;;;7586306;19;20014;-74
2023/08/07 06:21:11;;;;;;;5.15;2.10;;;11.40;99.90;;;;;;7593244;19;20022;-72
2023/08/07 06:23:43;;;;;;;5.68;2.40;;;11.40;99.90;;;;;;7588602;19;21355;-74
2023/08/07 06:26:16;;;;;;;7.43;2.30;;;11.40;99.90;;;;;;7592578;19;20014;-72
2023/08/07 06:28:48;;;;;;;5.35;2.15;;;11.40;99.90;;;;;;7586281;19;20018;-74
2023/08/07 06:31:21;;;;;;;6.82;1.85;;;11.40;99.90;;;;;;7592508;19;20066;-72
2023/08/07 06:33:53;;;;;;;6.40;1.83;;;11.50;99.90;;;;;;7583184;19;20043;-72
2023/08/07 06:36:26;;;;;;;3.50;1.95;;;11.60;99.90;;;;;;7587299;19;20439;-74
2023/08/07 06:38:58;;;;;;;3.80;1.90;;;11.60;99.90;;;;;;7577576;19;20022;-73
2023/08/07 06:41:31;;;;;;;5.00;1.85;;;11.70;99.90;;;;;;7583659;19;20067;-74
2023/08/07 06:44:03;;;;;;;7.28;2.15;;;11.70;99.90;;;;;;7590508;19;20030;-73
2023/08/07 06:46:36;;;;;;;3.25;1.77;;;11.80;99.90;;;;;;7582232;19;20030;-72
2023/08/07 06:49:08;;;;;;;4.50;1.77;;;11.70;99.90;;;;;;7587092;19;20554;-74
2023/08/07 06:51:40;;;;;;;4.45;1.85;;;11.80;99.90;;;;;;7582124;19;20018;-73
2023/08/07 06:54:13;;;;;;;4.93;1.83;;;11.90;99.90;;;;;;7585583;19;20015;-73
2023/08/07 06:56:45;;;;;;;4.13;2.10;;;12.00;99.90;;;;;;7587532;19;20087;-73
2023/08/07 06:59:17;;;;;;;6.63;2.28;;;12.10;99.90;;;;;;7596349;19;20066;-73
2023/08/07 07:01:50;;;;;;;6.38;1.92;;;12.10;99.90;;;;;;7590810;19;20018;-73
2023/08/07 07:04:22;;;;;;;2.53;1.60;;;12.20;99.90;;;;;;7588263;19;20018;-72
2023/08/07 07:06:55;;;;;;;4.43;2.08;;;12.20;99.90;;;;;;7589861;19;20581;-74
2023/08/07 07:09:28;;;;;;;2.70;1.70;;;12.30;99.90;;;;;;7585865;19;20014;-72
2023/08/07 07:12:01;;;;;;;4.28;1.80;;;12.40;99.90;;;;;;7586443;19;20027;-73
2023/08/07 07:14:36;;;;;;;2.42;1.58;;;12.40;99.90;;;;;;7585342;19;20026;-73
2023/08/07 07:17:09;;;;;;;5.20;1.55;;;12.60;99.90;;;;;;7593321;19;20022;-74
2023/08/07 07:19:42;;;;;;;3.15;1.50;;;12.70;99.90;;;;;;7581001;19;20018;-73
2023/08/07 07:22:14;;;;;;;3.35;1.63;;;12.90;99.90;;;;;;7585365;19;20047;-76
2023/08/07 07:24:47;;;;;;;5.82;2.30;;;;;;;;;;7580750;19;20018;-73
2023/08/07 07:27:22;;;;;;;3.22;1.77;;;;;;;;;;7587234;19;20026;-72
2023/08/07 07:29:54;;;;;;;2.15;1.60;;;;;;;;;;7591328;19;20742;-72
2023/08/07 07:32:27;;;;;;;3.75;1.60;;;13.00;99.90;;;;;;7587944;19;20629;-74
2023/08/07 07:35:00;;;;;;;2.75;1.75;;;13.30;99.90;;;;;;7579056;19;20030;-72
2023/08/07 07:37:32;;;;;;;4.55;1.90;;;13.40;99.90;;;;;;7585855;19;20684;-73
2023/08/07 07:40:05;;;;;;;3.88;1.67;;;13.60;99.90;;;;;;7593341;19;20054;-74
2023/08/07 07:42:38;;;;;;;3.97;1.80;;;13.70;99.90;;;;;;7586607;19;20055;-73
2023/08/07 07:45:10;;;;;;;5.15;1.58;;;13.60;99.90;;;;;;7588287;19;20014;-74
2023/08/07 07:47:43;;;;;;;4.05;1.80;;;13.60;99.90;;;;;;7589131;19;20017;-73
2023/08/07 07:50:15;;;;;;;4.32;1.58;;;13.70;99.90;;;;;;7569769;19;21104;-74
2023/08/07 07:52:48;;;;;;;3.08;1.67;;;13.70;99.90;;;;;;7581794;19;21002;-73
2023/08/07 07:55:20;;;;;;;5.28;2.00;;;13.70;99.90;;;;;;7590190;19;20025;-72
2023/08/07 07:57:54;;;;;;;5.20;1.60;;;13.70;99.90;;;;;;7598195;19;20014;-74
2023/08/07 08:00:27;;;;;;;;;;;13.60;99.90;;;;;;7598606;19;20018;-72
2023/08/07 08:02:59;;;;;;;7.15;1.80;;;13.70;99.90;;;;;;7597327;19;19933;-74
2023/08/07 08:05:32;;;;;;;3.53;1.73;;;13.60;99.90;;;;;;7578444;19;20403;-74
2023/08/07 08:08:07;;;;;;;3.88;1.95;;;13.60;99.90;;;;;;7582237;19;20121;-74
2023/08/07 08:10:39;;;;;;;7.97;2.45;;;13.60;99.90;;;;;;7588380;19;20030;-73
2023/08/07 08:13:11;;;;;;;2.75;1.58;;;13.60;99.90;;;;;;7585616;19;20022;-74
2023/08/07 08:15:45;;;;;;;4.70;2.33;;;13.60;99.90;;;;;;7582750;19;20578;-73
2023/08/07 08:18:17;;;;;;;2.55;1.70;;;13.70;99.90;;;;;;7576549;19;20022;-73
2023/08/07 08:20:49;;;;;;;3.25;1.80;;;13.60;99.90;;;;;;7595006;19;20065;-73
2023/08/07 08:23:22;;;;;;;6.88;1.80;;;13.70;99.90;;;;;;7586303;19;20722;-72
2023/08/07 08:25:54;;;;;;;5.47;2.13;;;13.60;99.90;;;;;;7591442;19;20022;-73
2023/08/07 08:28:26;;;;;;;3.97;1.67;;;13.60;99.90;;;;;;7591889;19;20050;-73
2023/08/07 08:30:59;;;;;;;9.57;2.47;;;13.70;99.90;;;;;;7592918;19;20006;-73
2023/08/07 08:33:31;;;;;;;2.83;1.70;;;13.70;99.90;;;;;;7577398;19;20014;-73
2023/08/07 08:36:04;;;;;;;3.45;2.00;;;13.70;99.90;;;;;;7586270;19;21466;-73
2023/08/07 08:38:36;;;;;;;6.35;1.65;;;13.70;99.90;;;;;;7581601;19;20026;-74
2023/08/07 08:41:09;;;;;;;4.40;1.70;;;13.80;99.90;;;;;;7583002;19;20014;-73
2023/08/07 08:43:45;;;;;;;3.30;1.50;;;13.80;99.90;;;;;;7586864;19;20014;-73
2023/08/07 08:46:20;;;;;;;6.00;1.50;;;13.70;99.90;;;;;;7588514;19;20054;-73
2023/08/07 08:48:56;;;;;;;4.78;1.70;;;13.80;99.90;;;;;;7586612;19;20019;-73
2023/08/07 08:51:30;;;;;;;4.75;1.98;;;13.80;99.90;;;;;;7579878;19;21025;-74
2023/08/07 08:54:03;;;;;;;3.42;2.00;;;13.80;99.90;;;;;;7584970;19;20018;-73
2023/08/07 08:56:37;;;;;;;4.93;1.63;;;13.70;99.90;;;;;;7591376;19;20022;-74
2023/08/07 08:59:09;;;;;;;2.08;1.70;;;13.70;99.90;;;;;;7585678;19;21375;-73
2023/08/07 09:01:41;;;;;;;3.08;1.50;;;13.70;99.90;;;;;;7594545;19;20475;-74
2023/08/07 09:04:14;;;;;;;4.05;1.65;;;13.80;99.90;;;;;;7590131;19;20051;-74
2023/08/07 09:06:47;;;;;;;3.85;2.10;;;13.80;99.90;;;;;;7595606;19;20666;-73
2023/08/07 09:09:21;;;;;;;3.30;2.13;;;13.80;99.90;;;;;;7586460;19;21078;-72
2023/08/07 09:11:56;;;;;;;2.80;1.83;;;13.70;99.90;;;;;;7590620;19;20063;-73
2023/08/07 09:14:31;;;;;;;4.43;1.98;;;13.80;99.90;;;;;;7579678;19;20727;-73
2023/08/07 09:17:04;;;;;;;3.53;1.80;;;13.80;99.90;;;;;;7572541;19;20030;-74
2023/08/07 09:19:37;;;;;;;2.42;1.77;;;13.80;99.90;;;;;;7581209;19;20025;-72
2023/08/07 09:22:10;;;;;;;5.07;2.00;;;13.90;99.90;;;;;;7581392;19;20492;-73
2023/08/07 09:24:43;;;;;;;5.15;1.52;;;13.90;99.90;;;;;;7577867;19;20287;-73
2023/08/07 09:27:15;;;;;;;3.05;1.70;;;14.00;99.90;;;;;;7579991;19;20034;-73
2023/08/07 09:29:48;;;;;;;3.55;1.75;;;14.00;99.90;;;;;;7585196;19;20024;-74
2023/08/07 09:32:23;;;;;;;6.75;2.10;;;14.00;99.90;;;;;;7577797;19;20014;-73
2023/08/07 09:34:56;;;;;;;4.10;1.70;;;14.10;99.90;;;;;;7580920;19;20055;-72
2023/08/07 09:37:28;;;;;;;3.72;2.03;;;14.10;99.90;;;;;;7587382;19;20123;-73
2023/08/07 09:40:01;;;;;;;6.83;1.83;;;14.10;99.90;;;;;;7586296;19;20425;-73
2023/08/07 09:42:37;;;;;;;3.30;1.50;;;14.00;99.90;;;;;;7582011;19;20332;-72
2023/08/07 09:45:20;;;;;;;7.60;2.05;;;14.00;99.90;;;;;;7583999;19;20433;-73
2023/08/07 09:48:03;;;;;;;3.38;1.70;;;14.10;99.90;;;;;;7583948;19;20018;-73
2023/08/07 09:50:36;;;;;;;4.28;1.98;;;14.10;99.90;;;;;;7580452;19;20085;-73
2023/08/07 09:53:10;;;;;;;4.93;2.13;;;14.30;99.90;;;;;;7583734;19;20022;-73
2023/08/07 09:55:42;;;;;;;2.95;1.83;;;14.30;99.90;;;;;;7586437;19;20074;-74
2023/08/07 09:58:17;;;;;;;3.08;1.70;;;14.50;99.90;;;;;;7581718;19;20019;-73
2023/08/07 10:00:50;;;;;;;2.53;1.63;;;14.70;99.90;;;;;;7592170;19;20139;-73
2023/08/07 10:03:23;;;;;;;3.42;1.58;;;14.80;99.90;;;;;;7583314;19;21081;-75
2023/08/07 10:05:56;;;;;;;3.45;1.60;;;15.00;99.90;;;;;;7583271;19;20002;-73
2023/08/07 10:08:28;;;;;;;4.03;2.22;;;15.00;99.90;;;;;;7570057;19;20055;-73
2023/08/07 10:11:01;;;;;;;3.70;2.00;;;14.80;99.90;;;;;;7591570;19;20085;-73
2023/08/07 10:13:35;;;;;;;6.72;2.08;;;14.90;99.90;;;;;;7585171;19;20022;-74
2023/08/07 10:16:12;;;;;;;3.38;2.10;;;14.80;99.90;;;;;;7594217;19;20022;-74
2023/08/07 10:18:44;;;;;;;2.42;1.80;;;15.00;99.90;;;;;;7577113;19;20055;-74
2023/08/07 10:21:17;;;;;;;3.67;1.83;;;15.20;99.90;;;;;;7580990;19;20022;-74
2023/08/07 10:23:53;;;;;;;4.40;2.00;;;15.50;99.90;;;;;;7575513;19;20078;-75
2023/08/07 10:26:26;;;;;;;4.25;2.30;;;16.00;99.90;;;;;;7577713;19;20018;-74
2023/08/07 10:29:01;;;;;;;2.13;1.70;;;16.10;99.90;;;;;;7585021;19;20402;-74
2023/08/07 10:31:35;;;;;;;5.03;1.70;;;16.10;99.90;;;;;;7572034;19;20738;-74
2023/08/07 10:34:08;;;;;;;3.35;2.05;;;16.00;99.90;;;;;;7587668;19;20018;-72
2023/08/07 10:36:40;;;;;;;3.75;1.63;;;16.00;99.90;;;;;;7570273;19;20017;-73
2023/08/07 10:39:32;;;;;;;5.30;1.90;;;16.00;99.90;;;;;;7573487;19;20023;-74
2023/08/07 10:42:23;;;;;;;2.75;1.60;;;16.30;99.90;;;;;;7572726;19;20123;-75
2023/08/07 10:45:01;;;;;;;7.15;2.22;;;16.50;99.90;;;;;;7588428;19;20833;-73
2023/08/07 10:47:34;;;;;;;4.82;1.92;;;16.60;99.90;;;;;;7567225;19;20018;-73
2023/08/07 10:50:09;;;;;;;4.10;2.10;;;16.70;99.90;;;;;;7584538;19;20022;-73
2023/08/07 10:52:41;;;;;;;3.47;1.88;;;16.60;99.90;;;;;;7582792;19;20823;-74
2023/08/07 10:55:14;;;;;;;2.55;1.73;;;16.30;99.90;;;;;;7581028;19;20049;-74
2023/08/07 10:57:47;;;;;;;3.50;2.03;;;16.10;99.90;;;;;;7572440;19;20126;-74
2023/08/07 11:00:25;;;;;;;6.20;2.10;;;15.80;99.90;;;;;;7584934;19;20022;-74
2023/08/07 11:02:59;;;;;;;5.07;1.98;;;15.80;99.90;;;;;;7577367;19;20022;-74
2023/08/07 11:05:32;;;;;;;4.57;1.70;;;16.10;99.90;;;;;;7582733;19;20019;-74
2023/08/07 11:08:04;;;;;;;4.10;1.52;;;16.70;99.90;;;;;;7577697;19;20023;-74
2023/08/07 11:10:37;;;;;;;3.83;2.13;;;17.10;99.90;;;;;;7582870;19;20053;-73
2023/08/07 11:13:09;;;;;;;3.50;1.60;;;17.30;99.90;;;;;;7574338;19;20623;-75
2023/08/07 11:15:43;;;;;;;9.18;2.20;;;17.10;99.90;;;;;;7562488;19;20022;-75
2023/08/07 11:18:16;;;;;;;3.35;2.00;;;17.00;99.90;;;;;;7584003;19;20018;-74
2023/08/07 11:20:49;;;;;;;7.05;1.98;;;17.10;99.90;;;;;;7569276;19;20015;-74
2023/08/07 11:23:28;;;;;;;5.68;1.83;;;17.20;99.90;;;;;;7575177;19;20036;-74
2023/08/07 11:26:00;;;;;;;2.78;1.80;;;17.30;99.90;;;;;;7566801;19;20051;-74
2023/08/07 11:28:33;;;;;;;5.43;2.17;;;17.40;99.90;;;;;;7585294;19;20014;-74
2023/08/07 11:31:06;;;;;;;4.10;1.80;;;17.60;99.90;;;;;;7577171;19;20089;-74
2023/08/07 11:33:38;;;;;;;3.45;1.90;;;17.40;99.10;;;;;;7578267;19;20479;-75
2023/08/07 11:36:12;;;;;;;4.00;1.80;;;17.30;98.80;;;;;;7591842;19;20014;-74
2023/08/07 11:38:44;;;;;;;2.45;1.77;;;17.10;99.50;;;;;;7567167;19;20051;-74
2023/08/07 11:41:18;;;;;;;3.58;1.45;;;16.80;99.80;;;;;;7587360;19;20018;-75
2023/08/07 11:43:50;;;;;;;2.45;1.83;;;16.60;99.90;;;;;;7579112;19;20022;-74
2023/08/07 11:46:22;;;;;;;1.92;1.45;;;16.80;99.90;;;;;;7589873;19;20036;-74
2023/08/07 11:48:56;;;;;;;4.50;1.65;;;17.00;99.90;;;;;;7571246;19;21096;-74
2023/08/07 11:51:28;;;;;;;;;;;17.30;99.90;;;;;;7585373;19;20051;-72
2023/08/07 11:54:02;;;;;;;6.80;1.60;;;17.40;99.40;;;;;;7582906;19;19950;-75
2023/08/07 11:56:34;;;;;;;4.60;1.70;;;17.20;97.90;;;;;;7566101;19;20022;-76
2023/08/07 11:59:06;;;;;;;2.75;1.50;;;17.20;98.10;;;;;;7587335;19;20019;-74
2023/08/07 12:01:40;;;;;;;3.63;1.55;;;17.20;97.50;;;;;;7576457;19;20029;-75
2023/08/07 12:04:13;;;;;;;2.88;2.08;;;17.10;97.20;;;;;;7586706;19;20026;-73
2023/08/07 12:06:55;;;;;;;2.80;1.80;;;17.00;97.20;;;;;;7581819;19;20048;-73
2023/08/07 12:09:30;;;;;;;6.40;1.63;;;16.90;97.50;;;;;;7569998;19;20286;-71
2023/08/07 12:12:03;;;;;;;3.92;1.90;;;16.70;97.90;;;;;;7584622;19;20022;-74
2023/08/07 12:14:35;;;;;;;2.97;1.80;;;16.50;97.10;;;;;;7580392;19;20021;-72
2023/08/07 12:17:09;;;;;;;2.92;1.67;;;16.40;98.10;;;;;;7579719;19;20018;-72
2023/08/07 12:19:43;;;;;;;2.20;1.50;;;16.30;99.50;;;;;;7584336;19;20039;-73
2023/08/07 12:22:19;;;;;;;2.55;1.40;;;16.10;99.90;;;;;;7575019;19;20022;-74
2023/08/07 12:24:52;;;;;;;2.15;1.50;;;15.90;99.90;;;;;;7576683;19;20047;-74
2023/08/07 12:27:24;;;;;;;3.78;1.70;;;15.70;99.90;;;;;;7573368;19;20022;-73
2023/08/07 12:29:56;;;;;;;2.35;1.42;;;15.80;99.90;;;;;;7576595;19;20010;-72
2023/08/07 12:32:28;;;;;;;2.10;1.60;;;15.80;99.90;;;;;;7583914;19;20018;-74
2023/08/07 12:35:01;;;;;;;5.72;1.45;;;16.00;99.90;;;;;;7590981;19;20011;-73
2023/08/07 12:37:36;;;;;;;2.60;1.60;;;16.20;99.90;;;;;;7574586;19;20097;-72
2023/08/07 12:40:10;;;;;;;2.00;1.58;;;16.30;99.90;;;;;;7580691;19;20957;-74
2023/08/07 12:42:45;;;;;;;3.33;1.63;;;16.40;99.90;;;;;;7577023;19;20634;-73
2023/08/07 12:45:18;;;;;;;4.65;1.85;;;17.00;99.90;;;;;;7586931;19;20014;-73
2023/08/07 12:48:11;;;;;;;1.50;1.35;;;17.40;96.50;;;;;;7566886;19;21718;-73
2023/08/07 12:50:43;;;;;;;2.38;1.63;;;17.90;97.20;;;;;;7569895;19;20014;-72
2023/08/07 12:53:16;;;;;;;3.03;2.00;;;18.10;95.20;;;;;;7577909;19;20561;-73
2023/08/07 12:55:48;;;;;;;5.75;1.90;;;18.10;94.80;;;;;;7574657;19;20014;-73
2023/08/07 12:58:25;;;;;;;4.35;1.45;;;18.30;95.10;;;;;;7585423;19;20053;-73
2023/08/07 13:00:58;;;;;;;2.13;1.52;;;18.20;94.20;;;;;;7570436;19;20396;-73
2023/08/07 13:03:30;;;;;;;2.45;1.63;;;17.80;93.40;;;;;;7586249;19;20019;-72
2023/08/07 13:06:05;;;;;;;4.10;1.42;;;17.90;95.40;;;;;;7594173;19;20033;-75
2023/08/07 13:08:38;;;;;;;3.08;1.33;;;17.80;94.20;;;;;;7575799;19;20102;-72
2023/08/07 13:11:10;;;;;;;3.88;1.60;;;17.70;95.10;;;;;;7586171;19;20030;-72
2023/08/07 13:13:42;;;;;;;2.33;1.65;;;17.50;94.90;;;;;;7581607;19;20467;-76
2023/08/07 13:16:15;;;;;;;2.97;1.83;;;17.30;94.30;;;;;;7589996;19;20018;-73
2023/08/07 13:18:47;;;;;;;3.70;2.08;;;17.30;95.10;;;;;;7569679;19;20981;-75
2023/08/07 13:21:20;;;;;;;2.25;1.70;;;17.30;94.30;;;;;;7587597;19;20014;-74
2023/08/07 13:23:52;;;;;;;2.35;1.70;;;17.40;94.50;;;;;;7578891;19;20018;-73